Fox Island, Washington
Current Conditions -  °F | °C
As of 11:53 AM on Thursday 18 Dec 2014 (Local Time) from KTIW Reporting Station
Light Rain Light Rain  
Wind Chill: 46°   Ceiling: 4900
Heat Index: 46°   Visibility: 10mi
Dew Point: 44°   Wind: 0mph
Humidity: 93%   Direction: NA
Pressure: 29.86"   Gusts: NA
Location:  47.25°N, 122.63°W
Report Text: KTIW 181953Z 00000KT 10SM -RA BKN049 BKN055 OVC070 08/07 A2986 RMK AO2 SLP114 P0004 T00780067
Loading
Personal Weather Stations






























Interactive Weather Map New forecast layout! Learn more

10-Day Weather Forecast

Advertisements
Track Severe Weather on mobile